createdAt,value
2018-04-17T00:01:05.832Z,10.50
2018-04-17T00:03:33.395Z,10.50
2018-04-17T00:06:00.948Z,10.40
2018-04-17T00:08:28.506Z,10.40
2018-04-17T00:10:56.045Z,10.40
2018-04-17T00:13:23.612Z,10.30
2018-04-17T00:15:51.169Z,10.30
2018-04-17T00:18:18.745Z,10.30
2018-04-17T00:20:46.282Z,10.30
2018-04-17T00:23:13.852Z,10.30
2018-04-17T00:25:41.391Z,10.30
2018-04-17T00:28:09.724Z,10.30
2018-04-17T00:30:37.273Z,10.20
2018-04-17T00:33:04.848Z,10.30
2018-04-17T00:35:32.394Z,10.30
2018-04-17T00:37:59.979Z,10.30
2018-04-17T00:40:27.530Z,10.30
2018-04-17T00:42:55.106Z,10.30
2018-04-17T00:45:22.652Z,10.30
2018-04-17T00:47:50.215Z,10.20
2018-04-17T00:50:17.760Z,10.00
2018-04-17T00:52:45.314Z,10.00
2018-04-17T00:55:12.855Z,10.00
2018-04-17T00:57:40.424Z,10.00
2018-04-17T01:00:07.954Z,10.00
2018-04-17T01:02:35.506Z,9.90
2018-04-17T01:05:03.809Z,9.80
2018-04-17T01:07:31.348Z,9.80
2018-04-17T01:09:58.910Z,9.70
2018-04-17T01:12:26.448Z,9.70
2018-04-17T01:14:54.771Z,9.70
2018-04-17T01:17:22.306Z,9.70
2018-04-17T01:19:49.882Z,9.60
2018-04-17T01:22:17.423Z,9.50
2018-04-17T01:24:44.989Z,9.50
2018-04-17T01:27:12.604Z,9.50
2018-04-17T01:29:40.940Z,9.60
2018-04-17T01:32:08.476Z,9.50
2018-04-17T01:34:36.059Z,9.50
2018-04-17T01:37:03.592Z,9.60
2018-04-17T01:39:31.166Z,9.60
2018-04-17T01:41:58.703Z,9.60
2018-04-17T01:44:27.045Z,9.50
2018-04-17T01:46:54.580Z,9.50
2018-04-17T01:49:22.149Z,9.50
2018-04-17T01:51:49.688Z,9.50
2018-04-17T01:54:17.255Z,9.40
2018-04-17T01:56:44.781Z,9.40
2018-04-17T01:59:13.111Z,9.40
2018-04-17T02:01:41.411Z,9.30
2018-04-17T02:04:08.980Z,9.30
2018-04-17T02:06:36.725Z,9.20
2018-04-17T02:09:04.283Z,9.20
2018-04-17T02:11:31.818Z,9.20
2018-04-17T02:13:59.355Z,9.20
2018-04-17T02:16:26.911Z,9.20
2018-04-17T02:18:54.452Z,9.20
2018-04-17T02:21:22.764Z,9.20
2018-04-17T02:23:50.290Z,9.10
2018-04-17T02:26:18.628Z,9.10
2018-04-17T02:28:46.166Z,9.10
2018-04-17T02:31:13.731Z,9.10
2018-04-17T02:33:41.272Z,9.00
2018-04-17T02:36:08.836Z,9.00
2018-04-17T02:38:36.375Z,8.90
2018-04-17T02:41:03.948Z,8.90
2018-04-17T02:43:31.497Z,8.80
2018-04-17T02:45:59.063Z,8.80
2018-04-17T02:48:26.612Z,8.80
2018-04-17T02:50:54.199Z,8.80
2018-04-17T02:53:21.757Z,8.80
2018-04-17T02:55:49.316Z,8.80
2018-04-17T02:58:16.846Z,8.80
2018-04-17T03:00:45.174Z,8.80
2018-04-17T03:03:12.717Z,8.80
2018-04-17T03:05:40.284Z,8.80
2018-04-17T03:08:07.828Z,8.80
2018-04-17T03:10:35.401Z,8.80
2018-04-17T03:13:02.953Z,8.80
2018-04-17T03:15:30.519Z,8.80
2018-04-17T03:17:58.056Z,8.80
2018-04-17T03:20:25.628Z,8.80
2018-04-17T03:22:53.162Z,8.80
2018-04-17T03:25:20.756Z,8.80
2018-04-17T03:27:48.305Z,8.60
2018-04-17T03:30:15.874Z,8.60
2018-04-17T03:32:43.426Z,8.50
2018-04-17T03:35:10.984Z,8.60
2018-04-17T03:37:38.559Z,8.60
2018-04-17T03:40:06.888Z,8.50
2018-04-17T03:42:35.229Z,8.50
2018-04-17T03:45:02.772Z,8.50
2018-04-17T03:47:30.454Z,8.50
2018-04-17T03:49:58.769Z,8.50
2018-04-17T03:52:26.334Z,8.40
2018-04-17T03:54:53.985Z,8.40
2018-04-17T03:57:21.576Z,8.40
2018-04-17T03:59:49.119Z,8.40
2018-04-17T04:02:16.683Z,8.30
2018-04-17T04:04:44.248Z,8.20
2018-04-17T04:07:11.805Z,8.20
2018-04-17T04:09:39.346Z,8.20
2018-04-17T04:12:06.910Z,8.20
2018-04-17T04:14:34.440Z,8.20
2018-04-17T04:17:13.824Z,8.20
2018-04-17T04:19:53.308Z,8.20
2018-04-17T04:22:32.680Z,8.30
2018-04-17T04:28:12.181Z,8.20
2018-04-17T04:30:39.726Z,8.20
2018-04-17T04:33:07.300Z,8.10
2018-04-17T04:35:34.850Z,8.10
2018-04-17T04:38:02.418Z,8.10
2018-04-17T04:40:29.964Z,8.10
2018-04-17T04:42:57.527Z,8.20
2018-04-17T04:45:25.072Z,8.20
2018-04-17T04:47:52.641Z,8.20
2018-04-17T04:50:20.186Z,8.30
2018-04-17T04:52:47.750Z,8.30
2018-04-17T04:55:15.295Z,8.20
2018-04-17T04:57:42.873Z,8.20
2018-04-17T05:00:10.436Z,8.20
2018-04-17T05:02:38.004Z,8.20
2018-04-17T05:05:05.552Z,8.30
2018-04-17T05:07:33.136Z,8.30
2018-04-17T05:10:00.678Z,8.30
2018-04-17T05:12:28.252Z,8.30
2018-04-17T05:14:55.839Z,8.30
2018-04-17T05:17:23.405Z,8.30
2018-04-17T05:19:51.716Z,8.30
2018-04-17T05:22:19.280Z,8.30
2018-04-17T05:24:46.845Z,8.30
2018-04-17T05:27:14.415Z,8.30
2018-04-17T05:29:41.955Z,8.40
2018-04-17T05:32:09.537Z,8.50
2018-04-17T05:34:37.149Z,8.60
2018-04-17T05:37:04.735Z,8.70
2018-04-17T05:39:32.266Z,8.70
2018-04-17T05:42:00.599Z,8.80
2018-04-17T05:44:28.168Z,8.80
2018-04-17T05:46:55.712Z,8.90
2018-04-17T05:49:23.283Z,9.00
2018-04-17T05:51:50.838Z,9.10
2018-04-17T05:54:18.395Z,9.20
2018-04-17T05:56:45.927Z,9.30
2018-04-17T05:59:13.493Z,9.40
2018-04-17T06:01:41.043Z,9.60
2018-04-17T06:04:08.651Z,9.70
2018-04-17T06:06:36.198Z,9.70
2018-04-17T06:09:03.771Z,9.80
2018-04-17T06:11:32.113Z,10.10
2018-04-17T06:13:59.698Z,10.10
2018-04-17T06:16:27.251Z,10.20
2018-04-17T06:18:54.823Z,10.30
2018-04-17T06:41:19.894Z,11.20
2018-04-17T06:43:48.240Z,11.40
2018-04-17T06:46:15.793Z,11.40
2018-04-17T06:48:43.391Z,11.50
2018-04-17T06:51:11.693Z,11.60
2018-04-17T06:53:39.275Z,11.70
2018-04-17T06:56:06.821Z,11.80
2018-04-17T06:58:34.395Z,11.90
2018-04-17T07:01:01.942Z,12.00
2018-04-17T07:03:29.513Z,12.10
2018-04-17T07:05:57.055Z,12.30
2018-04-17T07:08:24.603Z,12.40
2018-04-17T07:10:53.107Z,12.60
2018-04-17T07:13:20.656Z,12.70
2018-04-17T07:15:48.224Z,12.90
2018-04-17T07:18:15.886Z,13.10
2018-04-17T07:20:43.446Z,13.20
2018-04-17T07:23:10.995Z,13.20
2018-04-17T07:25:38.566Z,13.40
2018-04-17T07:28:06.113Z,13.60
2018-04-17T07:30:33.685Z,13.60
2018-04-17T07:33:01.248Z,13.60
2018-04-17T07:35:28.819Z,13.90
2018-04-17T07:37:56.359Z,13.90
2018-04-17T07:40:24.009Z,13.80
2018-04-17T07:42:51.487Z,13.90
2018-04-17T07:45:19.051Z,14.20
2018-04-17T07:50:51.160Z,14.70
2018-04-17T07:53:18.756Z,14.80
2018-04-17T07:55:46.385Z,15.00
2018-04-17T07:58:13.879Z,15.10
2018-04-17T08:00:41.468Z,15.30
2018-04-17T08:03:09.007Z,15.40
2018-04-17T08:05:36.572Z,15.70
2018-04-17T08:08:04.113Z,15.90
2018-04-17T08:10:32.444Z,16.20
2018-04-17T08:13:00.019Z,16.20
2018-04-17T08:15:27.590Z,16.40
2018-04-17T08:17:55.140Z,16.50
2018-04-17T08:20:22.712Z,16.70
2018-04-17T08:22:51.028Z,16.90
2018-04-17T08:25:18.612Z,16.90
2018-04-17T08:27:46.160Z,16.90
2018-04-17T08:30:13.730Z,16.90
2018-04-17T08:32:41.286Z,17.00
2018-04-17T08:35:08.841Z,17.00
2018-04-17T08:37:36.379Z,17.10
2018-04-17T08:40:03.950Z,17.40
2018-04-17T08:42:31.492Z,17.60
2018-04-17T08:44:59.061Z,17.60
2018-04-17T08:47:26.608Z,17.70
2018-04-17T08:49:54.164Z,17.70
2018-04-17T08:52:21.731Z,17.90
2018-04-17T08:54:49.289Z,18.00
2018-04-17T08:57:16.859Z,18.20
2018-04-17T08:59:44.404Z,18.30
2018-04-17T09:02:11.971Z,18.30
2018-04-17T09:19:00.559Z,19.50
2018-04-17T09:21:28.138Z,19.40
2018-04-17T09:23:55.716Z,19.50
2018-04-17T09:26:24.044Z,20.10
2018-04-17T09:28:51.581Z,20.00
2018-04-17T09:31:19.138Z,20.30
2018-04-17T09:33:46.678Z,20.50
2018-04-17T09:36:15.024Z,20.60
2018-04-17T09:38:42.577Z,20.60
2018-04-17T09:41:10.148Z,20.70
2018-04-17T09:43:37.693Z,20.90
2018-04-17T09:46:05.254Z,21.10
2018-04-17T09:48:32.795Z,21.10
2018-04-17T09:51:00.373Z,21.30
2018-04-17T09:53:27.917Z,21.50
2018-04-17T09:55:55.484Z,21.80
2018-04-17T09:58:23.034Z,21.60
2018-04-17T10:00:56.277Z,21.60
2018-04-17T10:03:24.591Z,22.10
2018-04-17T10:05:52.135Z,22.10
2018-04-17T10:08:19.703Z,22.20
2018-04-17T10:10:47.244Z,22.30
2018-04-17T10:13:14.816Z,22.40
2018-04-17T10:15:42.363Z,22.20
2018-04-17T10:18:09.931Z,22.40
2018-04-17T10:20:37.479Z,22.50
2018-04-17T10:23:05.044Z,22.80
2018-04-17T10:25:32.588Z,22.80
2018-04-17T10:28:00.936Z,22.70
2018-04-17T10:30:28.486Z,22.70
2018-04-17T10:32:56.056Z,22.80
2018-04-17T10:35:23.602Z,22.90
2018-04-17T10:37:51.174Z,23.00
2018-04-17T10:40:18.722Z,23.00
2018-04-17T10:42:46.290Z,23.00
2018-04-17T10:45:13.846Z,22.90
2018-04-17T10:47:41.411Z,22.80
2018-04-17T10:50:08.959Z,23.00
2018-04-17T10:52:36.531Z,23.40
2018-04-17T10:55:04.081Z,23.80
2018-04-17T10:57:31.654Z,23.80
2018-04-17T10:59:59.187Z,23.90
2018-04-17T11:02:26.756Z,24.20
2018-04-17T11:04:54.334Z,24.70
2018-04-17T11:07:21.886Z,24.90
2018-04-17T11:09:49.421Z,24.90
2018-04-17T11:12:16.991Z,25.00
2018-04-17T11:14:44.535Z,24.80
2018-04-17T11:17:12.320Z,24.60
2018-04-17T11:19:39.860Z,24.50
2018-04-17T11:22:07.410Z,24.30
2018-04-17T11:24:34.979Z,24.30
2018-04-17T11:29:37.175Z,23.90
2018-04-17T11:32:04.716Z,23.90
2018-04-17T11:34:32.315Z,23.50
2018-04-17T11:36:59.849Z,23.30
2018-04-17T11:39:27.405Z,23.10
2018-04-17T11:41:54.943Z,23.20
2018-04-17T11:44:22.530Z,23.20
2018-04-17T11:46:50.080Z,23.30
2018-04-17T11:49:17.644Z,23.70
2018-04-17T11:51:45.179Z,24.00
2018-04-17T11:54:12.755Z,24.10
2018-04-17T11:56:40.292Z,24.10
2018-04-17T11:59:07.976Z,24.30
2018-04-17T12:01:35.516Z,24.70
2018-04-17T12:04:03.106Z,25.00
2018-04-17T12:06:30.639Z,25.10
2018-04-17T12:08:58.208Z,25.00
2018-04-17T12:11:25.772Z,25.10
2018-04-17T12:13:53.329Z,25.20
2018-04-17T12:16:20.879Z,25.30
2018-04-17T12:18:48.475Z,25.40
2018-04-17T12:21:16.027Z,25.40
2018-04-17T12:23:43.601Z,25.70
2018-04-17T12:26:11.151Z,25.80
2018-04-17T12:28:38.731Z,25.90
2018-04-17T12:31:06.280Z,26.10
2018-04-17T12:33:33.821Z,25.90
2018-04-17T12:36:01.391Z,26.10
2018-04-17T12:38:28.945Z,26.40
2018-04-17T12:40:56.502Z,26.70
2018-04-17T12:43:24.049Z,26.80
2018-04-17T12:45:51.628Z,26.60
2018-04-17T12:48:19.170Z,26.60
2018-04-17T12:50:46.739Z,26.50
2018-04-17T12:53:14.285Z,26.40
2018-04-17T12:55:41.873Z,26.70
2018-04-17T12:58:09.432Z,26.60
2018-04-17T13:00:36.999Z,26.70
2018-04-17T13:03:04.551Z,26.90
2018-04-17T13:05:32.131Z,26.90
2018-04-17T13:07:59.678Z,26.70
2018-04-17T13:10:27.291Z,26.10
2018-04-17T13:12:54.826Z,25.90
2018-04-17T13:15:23.158Z,26.00
2018-04-17T13:17:50.686Z,26.00
2018-04-17T13:20:18.272Z,25.80
2018-04-17T13:22:45.817Z,25.50
2018-04-17T13:25:13.391Z,25.50
2018-04-17T13:27:40.936Z,25.50
2018-04-17T13:30:08.502Z,25.80
2018-04-17T13:32:36.056Z,25.80
2018-04-17T13:35:03.625Z,25.60
2018-04-17T13:37:31.186Z,25.20
2018-04-17T13:39:58.752Z,24.90
2018-04-17T13:42:26.352Z,24.70
2018-04-17T13:44:53.887Z,24.50
2018-04-17T13:47:21.455Z,24.40
2018-04-17T13:49:48.992Z,24.50
2018-04-17T13:52:16.558Z,24.70
2018-04-17T13:54:44.104Z,24.90
2018-04-17T13:57:11.675Z,25.00
2018-04-17T13:59:39.214Z,25.10
2018-04-17T14:02:06.775Z,25.30
2018-04-17T14:04:34.320Z,25.50
2018-04-17T14:07:01.898Z,25.40
2018-04-17T14:09:29.452Z,25.40
2018-04-17T14:11:57.021Z,25.50
2018-04-17T14:14:25.180Z,25.60
2018-04-17T14:16:52.790Z,25.80
2018-04-17T14:19:20.428Z,26.00
2018-04-17T14:21:48.102Z,26.00
2018-04-17T14:24:16.629Z,26.10
2018-04-17T14:26:44.201Z,26.00
2018-04-17T14:29:11.758Z,26.40
2018-04-17T14:31:39.332Z,26.70
2018-04-17T14:34:06.890Z,26.80
2018-04-17T14:36:34.455Z,26.50
2018-04-17T14:39:02.012Z,26.80
2018-04-17T14:41:29.584Z,26.90
2018-04-17T14:43:57.128Z,26.90
2018-04-17T14:46:24.704Z,27.10
2018-04-17T14:48:52.251Z,27.10
2018-04-17T14:51:19.793Z,27.30
2018-04-17T14:53:47.375Z,27.50
2018-04-17T14:56:15.693Z,27.40
2018-04-17T14:58:44.036Z,27.30
2018-04-17T15:01:11.600Z,27.30
2018-04-17T15:03:39.167Z,27.20
2018-04-17T15:06:06.720Z,27.20
2018-04-17T15:08:34.288Z,27.20
2018-04-17T15:11:01.844Z,27.10
2018-04-17T15:13:29.419Z,26.70
2018-04-17T15:15:56.976Z,26.50
2018-04-17T15:18:24.547Z,26.50
2018-04-17T15:20:52.879Z,26.50
2018-04-17T15:23:20.470Z,26.50
2018-04-17T15:25:48.029Z,26.60
2018-04-17T15:28:15.607Z,26.60
2018-04-17T15:30:43.920Z,26.50
2018-04-17T15:33:11.488Z,26.40
2018-04-17T15:35:39.051Z,26.30
2018-04-17T15:38:06.622Z,26.20
2018-04-17T15:40:34.172Z,25.80
2018-04-17T15:43:01.749Z,25.50
2018-04-17T15:45:29.296Z,25.60
2018-04-17T15:47:56.873Z,25.50
2018-04-17T15:50:24.598Z,25.50
2018-04-17T15:52:52.170Z,25.60
2018-04-17T15:55:19.713Z,25.70
2018-04-17T15:57:47.337Z,25.70
2018-04-17T16:00:15.678Z,25.70
2018-04-17T16:02:43.660Z,25.60
2018-04-17T16:05:11.200Z,25.50
2018-04-17T16:07:38.797Z,25.40
2018-04-17T16:10:06.339Z,25.20
2018-04-17T16:12:33.889Z,25.10
2018-04-17T16:15:01.453Z,25.20
2018-04-17T16:17:28.997Z,25.50
2018-04-17T16:19:56.561Z,26.10
2018-04-17T16:22:24.108Z,26.60
2018-04-17T16:24:51.681Z,27.20
2018-04-17T16:27:19.214Z,28.10
2018-04-17T16:29:46.792Z,28.30
2018-04-17T16:32:14.330Z,28.50
2018-04-17T16:34:41.896Z,28.60
2018-04-17T16:37:09.440Z,28.90
2018-04-17T16:39:37.016Z,29.40
2018-04-17T16:42:04.550Z,29.60
2018-04-17T16:44:32.894Z,30.20
2018-04-17T16:47:00.434Z,30.20
2018-04-17T16:49:28.015Z,29.80
2018-04-17T16:51:55.563Z,29.50
2018-04-17T16:54:23.398Z,29.00
2018-04-17T16:56:50.944Z,28.80
2018-04-17T16:59:18.515Z,28.80
2018-04-17T17:01:46.085Z,28.90
2018-04-17T17:04:13.689Z,28.50
2018-04-17T17:06:41.231Z,28.30
2018-04-17T17:09:09.559Z,28.80
2018-04-17T17:11:37.128Z,28.80
2018-04-17T17:14:04.715Z,28.90
2018-04-17T17:16:32.259Z,28.30
2018-04-17T17:18:59.826Z,28.10
2018-04-17T17:21:27.375Z,27.90
2018-04-17T17:23:54.955Z,27.50
2018-04-17T17:26:22.509Z,27.20
2018-04-17T17:28:50.056Z,26.80
2018-04-17T17:31:17.611Z,26.40
2018-04-17T17:33:45.155Z,25.90
2018-04-17T17:36:12.748Z,25.50
2018-04-17T17:38:40.297Z,24.90
2018-04-17T17:41:07.861Z,24.30
2018-04-17T17:43:35.413Z,23.50
2018-04-17T17:46:02.987Z,23.00
2018-04-17T17:48:30.517Z,22.50
2018-04-17T17:50:58.090Z,21.80
2018-04-17T17:53:25.637Z,21.40
2018-04-17T17:55:53.225Z,21.00
2018-04-17T17:58:20.807Z,20.70
2018-04-17T18:00:48.388Z,20.40
2018-04-17T18:03:15.920Z,20.00
2018-04-17T18:05:43.496Z,19.80
2018-04-17T18:08:11.047Z,19.40
2018-04-17T18:10:38.601Z,19.10
2018-04-17T18:13:06.140Z,18.90
2018-04-17T18:15:33.703Z,18.70
2018-04-17T18:18:01.275Z,18.50
2018-04-17T18:20:28.845Z,18.30
2018-04-17T18:22:56.405Z,18.10
2018-04-17T18:25:23.959Z,17.90
2018-04-17T18:27:51.499Z,17.80
2018-04-17T18:30:19.068Z,17.70
2018-04-17T18:32:46.630Z,17.50
2018-04-17T18:35:14.203Z,17.40
2018-04-17T18:37:41.742Z,17.40
2018-04-17T18:40:09.308Z,17.30
2018-04-17T18:42:36.858Z,17.30
2018-04-17T18:45:04.435Z,17.20
2018-04-17T18:47:31.976Z,17.30
2018-04-17T18:49:59.537Z,17.30
2018-04-17T18:52:27.094Z,17.30
2018-04-17T18:54:54.641Z,17.30
2018-04-17T18:57:22.211Z,17.30
2018-04-17T18:59:49.755Z,17.30
2018-04-17T19:02:17.347Z,17.30
2018-04-17T19:04:44.894Z,17.20
2018-04-17T19:07:12.458Z,17.10
2018-04-17T19:09:40.003Z,17.10
2018-04-17T19:12:07.565Z,16.90
2018-04-17T19:14:35.106Z,16.70
2018-04-17T19:17:02.676Z,16.60
2018-04-17T19:19:30.362Z,16.50
2018-04-17T19:21:57.958Z,16.40
2018-04-17T19:24:26.262Z,16.20
2018-04-17T19:26:53.841Z,16.10
2018-04-17T19:29:21.379Z,16.10
2018-04-17T19:31:48.953Z,16.00
2018-04-17T19:34:16.498Z,15.90
2018-04-17T19:36:44.072Z,15.90
2018-04-17T19:39:11.641Z,15.80
2018-04-17T19:41:39.207Z,15.80
2018-04-17T19:44:06.783Z,15.80
2018-04-17T19:46:35.135Z,15.70
2018-04-17T19:49:02.683Z,15.70
2018-04-17T19:51:30.259Z,15.70
2018-04-17T19:53:57.801Z,15.80
2018-04-17T19:56:25.464Z,15.90
2018-04-17T19:58:53.156Z,15.90
2018-04-17T20:01:20.737Z,15.90
2018-04-17T20:03:48.289Z,15.90
2018-04-17T20:06:15.867Z,15.80
2018-04-17T20:08:44.175Z,15.70
2018-04-17T20:11:11.749Z,15.60
2018-04-17T20:13:39.300Z,15.60
2018-04-17T20:16:06.879Z,15.60
2018-04-17T20:18:34.413Z,15.70
2018-04-17T20:21:01.951Z,15.60
2018-04-17T20:23:30.294Z,15.40
2018-04-17T20:25:57.839Z,15.40
2018-04-17T20:28:25.402Z,15.40
2018-04-17T20:30:52.948Z,15.20
2018-04-17T20:33:20.516Z,15.20
2018-04-17T20:35:48.060Z,15.10
2018-04-17T20:38:15.627Z,15.10
2018-04-17T20:40:43.186Z,15.10
2018-04-17T20:43:10.751Z,15.20
2018-04-17T20:45:38.320Z,15.20
2018-04-17T20:48:05.878Z,15.10
2018-04-17T20:50:33.426Z,15.00
2018-04-17T20:53:00.989Z,15.00
2018-04-17T20:55:28.548Z,14.90
2018-04-17T20:57:56.131Z,14.90
2018-04-17T21:00:23.688Z,14.90
2018-04-17T21:02:51.255Z,14.90
2018-04-17T21:05:18.800Z,14.90
2018-04-17T21:07:46.369Z,14.80
2018-04-17T21:10:13.917Z,14.80
2018-04-17T21:12:41.488Z,14.70
2018-04-17T21:15:09.032Z,14.70
2018-04-17T21:17:36.601Z,14.60
2018-04-17T21:20:04.140Z,14.60
2018-04-17T21:22:31.707Z,14.60
2018-04-17T21:24:59.254Z,14.60
2018-04-17T21:27:26.817Z,14.50
2018-04-17T21:29:54.357Z,14.50
2018-04-17T21:32:21.944Z,14.30
2018-04-17T21:34:49.486Z,14.20
2018-04-17T21:37:17.054Z,14.00
2018-04-17T21:39:44.611Z,13.90
2018-04-17T21:42:12.181Z,13.90
2018-04-17T21:44:39.732Z,14.00
2018-04-17T21:47:07.289Z,14.00
2018-04-17T21:49:34.838Z,13.90
2018-04-17T21:52:02.383Z,13.90
2018-04-17T21:54:29.948Z,13.80
2018-04-17T21:56:57.509Z,13.80
2018-04-17T21:59:25.085Z,13.70
2018-04-17T22:01:52.627Z,13.70
2018-04-17T22:04:20.203Z,13.50
2018-04-17T22:06:47.744Z,13.40
2018-04-17T22:09:15.316Z,13.30
2018-04-17T22:11:42.855Z,13.20
2018-04-17T22:14:11.820Z,13.20
2018-04-17T22:16:39.367Z,13.20
2018-04-17T22:19:06.927Z,13.10
2018-04-17T22:21:34.556Z,13.10
2018-04-17T22:24:02.123Z,13.10
2018-04-17T22:26:29.667Z,13.10
2018-04-17T22:28:57.229Z,13.00
2018-04-17T23:53:21.913Z,12.80
2018-04-17T23:55:49.466Z,10.50
2018-04-17T23:58:17.010Z,10.40
